Time;durP1;ratioP1;P1;durP2;ratioP2;P2;SDS_P1;SDS_P2;PMS_P1;PMS_P2;Temp;Humidity;BMP_temperature;BMP_pressure;BME280_temperature;BME280_humidity;BME280_pressure;Samples;Min_cycle;Max_cycle;Signal;HPM_P1;HPM_P2
2021/07/08 02:46:39;;;;;;;8.63;7.13;;;16.70;99.90;;;;;;5746329;23;83807;-83
2021/07/08 02:49:04;;;;;;;10.00;7.53;;;16.70;99.90;;;;;;4940019;28;81801;-81
2021/07/08 02:51:30;;;;;;;10.68;8.32;;;16.70;99.90;;;;;;4937154;28;81657;-83
2021/07/08 02:53:56;;;;;;;10.82;8.00;;;16.60;99.90;;;;;;4937239;28;83158;-82
2021/07/08 02:56:21;;;;;;;11.20;8.65;;;16.50;99.90;;;;;;4935244;28;82025;-82
2021/07/08 02:58:47;;;;;;;9.43;7.85;;;16.30;99.90;;;;;;4934915;28;81677;-81
2021/07/08 03:01:13;;;;;;;11.63;8.77;;;16.30;99.90;;;;;;4926907;28;83187;-82
2021/07/08 03:03:38;;;;;;;16.27;9.15;;;16.30;99.90;;;;;;4916550;28;83127;-82
2021/07/08 03:06:04;;;;;;;10.23;7.88;;;16.40;99.90;;;;;;4925436;28;82318;-82
2021/07/08 03:08:30;;;;;;;12.13;8.38;;;16.40;99.90;;;;;;4917545;28;82655;-83
2021/07/08 03:10:55;;;;;;;9.90;7.63;;;16.40;99.90;;;;;;4920972;28;81778;-81
2021/07/08 03:13:21;;;;;;;9.93;7.80;;;16.30;99.90;;;;;;4935426;28;81522;-83
2021/07/08 03:15:47;;;;;;;8.27;6.47;;;16.40;99.90;;;;;;4939331;28;83069;-82
2021/07/08 03:18:12;;;;;;;8.82;7.00;;;16.40;99.90;;;;;;4939828;28;81344;-83
2021/07/08 03:20:38;;;;;;;7.80;6.50;;;16.50;99.90;;;;;;4932416;28;82526;-82
2021/07/08 03:23:06;;;;;;;7.55;5.13;;;16.60;99.90;;;;;;4935881;28;81933;-84
2021/07/08 03:25:32;;;;;;;7.20;5.85;;;16.70;99.90;;;;;;4929098;28;82091;-84
2021/07/08 03:27:58;;;;;;;6.85;5.53;;;16.70;99.90;;;;;;4929610;28;82026;-83
2021/07/08 03:30:25;;;;;;;6.00;5.32;;;16.70;99.90;;;;;;4936032;28;81929;-84
2021/07/08 03:32:52;;;;;;;5.97;4.88;;;16.70;99.90;;;;;;4928511;28;83546;-84
2021/07/08 03:35:18;;;;;;;4.72;4.18;;;16.70;99.90;;;;;;4930241;28;82884;-83
2021/07/08 03:37:44;;;;;;;6.75;4.70;;;16.80;99.90;;;;;;4931821;28;81837;-83
2021/07/08 03:40:13;;;;;;;6.95;6.18;;;16.80;99.90;;;;;;4929032;28;82211;-83
2021/07/08 03:42:43;;;;;;;5.72;4.93;;;16.80;99.90;;;;;;4926511;28;82606;-84
2021/07/08 03:45:10;;;;;;;6.20;4.78;;;16.80;99.90;;;;;;4930556;28;81942;-83
2021/07/08 03:47:36;;;;;;;7.45;5.47;;;16.90;99.90;;;;;;4914597;28;81944;-84
2021/07/08 03:50:06;;;;;;;9.48;7.07;;;17.00;99.90;;;;;;4893975;28;83107;-84
2021/07/08 03:52:32;;;;;;;10.95;7.18;;;17.00;99.90;;;;;;4912006;28;82245;-81
2021/07/08 03:54:57;;;;;;;8.40;6.25;;;16.80;99.90;;;;;;4915713;28;81692;-81
2021/07/08 03:57:23;;;;;;;9.20;6.95;;;16.70;99.90;;;;;;4910016;28;82446;-82
2021/07/08 03:59:49;;;;;;;8.38;7.53;;;17.20;99.90;;;;;;4910624;28;81719;-83
2021/07/08 04:02:14;;;;;;;9.77;6.68;;;16.80;99.90;;;;;;4901561;28;82660;-82
2021/07/08 04:04:41;;;;;;;6.88;4.95;;;16.90;99.90;;;;;;4895044;28;83447;-81
2021/07/08 04:07:08;;;;;;;5.05;4.22;;;16.90;99.90;;;;;;4894385;28;81650;-81
2021/07/08 04:09:34;;;;;;;6.20;4.15;;;16.90;99.90;;;;;;4910109;28;82005;-81
2021/07/08 04:12:00;;;;;;;4.78;4.18;;;16.90;99.90;;;;;;4908656;28;82649;-81
2021/07/08 04:14:26;;;;;;;6.43;5.00;;;16.90;99.90;;;;;;4911014;28;83678;-81
2021/07/08 04:16:51;;;;;;;7.20;5.47;;;16.90;99.90;;;;;;4907515;28;82026;-80
2021/07/08 04:19:17;;;;;;;5.75;5.22;;;16.90;99.90;;;;;;4902328;28;81955;-82
2021/07/08 04:21:43;;;;;;;6.93;5.72;;;16.80;99.90;;;;;;4905890;28;82921;-80
2021/07/08 04:24:09;;;;;;;6.57;5.70;;;16.80;99.90;;;;;;4903582;28;82830;-82
2021/07/08 04:26:35;;;;;;;7.10;5.78;;;16.80;99.90;;;;;;4906445;28;82275;-81
2021/07/08 04:29:01;;;;;;;10.80;8.95;;;16.80;99.90;;;;;;4903909;28;82047;-84
2021/07/08 04:31:27;;;;;;;10.98;7.55;;;16.90;99.90;;;;;;4903361;28;82610;-84
2021/07/08 04:33:52;;;;;;;11.20;8.52;;;17.00;99.90;;;;;;4917076;28;81808;-82
2021/07/08 04:36:18;;;;;;;8.88;7.18;;;17.00;99.90;;;;;;4909649;28;81856;-82
2021/07/08 04:38:48;;;;;;;10.20;7.35;;;17.00;99.90;;;;;;4906410;28;81200;-82
2021/07/08 04:41:13;;;;;;;9.75;7.30;;;17.10;99.90;;;;;;4909642;28;82003;-82
2021/07/08 04:43:39;;;;;;;10.88;7.47;;;17.10;99.90;;;;;;4908068;28;81979;-84
2021/07/08 04:46:05;;;;;;;9.25;7.32;;;17.20;99.90;;;;;;4903111;28;82876;-83
2021/07/08 04:48:30;;;;;;;9.50;7.35;;;17.20;99.90;;;;;;4907654;28;82768;-82
2021/07/08 04:51:01;;;;;;;9.10;7.40;;;17.20;99.90;;;;;;4910713;28;82396;-83
2021/07/08 04:53:27;;;;;;;9.52;6.78;;;17.30;99.90;;;;;;4912898;28;81855;-83
2021/07/08 04:55:52;;;;;;;10.05;7.57;;;17.40;99.90;;;;;;4910616;28;81991;-83
2021/07/08 04:58:18;;;;;;;10.07;7.63;;;17.40;99.90;;;;;;4915206;28;82059;-84
2021/07/08 05:00:44;;;;;;;8.95;7.10;;;17.50;99.90;;;;;;4916381;28;82017;-84
2021/07/08 05:03:10;;;;;;;9.43;6.60;;;17.50;99.90;;;;;;4914323;28;81222;-84
2021/07/08 05:05:36;;;;;;;8.20;6.07;;;17.60;99.90;;;;;;4914781;28;81877;-84
2021/07/08 05:08:06;;;;;;;7.13;6.43;;;17.50;99.90;;;;;;4906611;28;81841;-83
2021/07/08 05:10:32;;;;;;;8.75;6.15;;;17.40;99.90;;;;;;4909248;28;83149;-83
2021/07/08 05:12:59;;;;;;;7.25;6.05;;;17.40;99.90;;;;;;4912770;28;82358;-83
2021/07/08 05:15:25;;;;;;;7.85;4.97;;;17.40;99.90;;;;;;4912301;28;82381;-84
2021/07/08 05:17:51;;;;;;;5.07;4.43;;;17.50;99.90;;;;;;4914742;28;82713;-83
2021/07/08 05:20:17;;;;;;;9.63;4.80;;;17.40;99.90;;;;;;4912105;28;82181;-83
2021/07/08 05:22:47;;;;;;;6.05;4.50;;;17.40;99.90;;;;;;4915861;28;81657;-83
2021/07/08 05:25:15;;;;;;;6.50;4.67;;;17.30;99.90;;;;;;4912544;28;83990;-84
2021/07/08 05:27:41;;;;;;;6.82;4.45;;;17.20;99.90;;;;;;4914336;28;81321;-83
2021/07/08 05:30:08;;;;;;;7.95;4.40;;;17.30;99.90;;;;;;4916753;28;81994;-83
2021/07/08 05:32:34;;;;;;;6.07;3.90;;;17.20;99.90;;;;;;4919239;28;82753;-83
2021/07/08 05:35:00;;;;;;;6.53;3.75;;;17.10;99.90;;;;;;4914617;28;82903;-84
2021/07/08 05:37:26;;;;;;;5.10;4.10;;;17.20;99.90;;;;;;4912877;28;81958;-82
2021/07/08 05:39:52;;;;;;;6.28;5.68;;;16.70;99.90;;;;;;4910552;28;81633;-83
2021/07/08 05:42:18;;;;;;;4.78;4.28;;;17.20;99.90;;;;;;4914872;28;82288;-83
2021/07/08 05:44:44;;;;;;;5.63;4.45;;;17.10;99.90;;;;;;4915170;28;81831;-83
2021/07/08 05:47:09;;;;;;;5.40;4.28;;;17.20;99.90;;;;;;4908831;28;81568;-83
2021/07/08 05:49:35;;;;;;;5.60;4.30;;;17.20;99.90;;;;;;4914021;28;82068;-83
2021/07/08 05:52:01;;;;;;;5.68;4.20;;;17.30;99.90;;;;;;4915461;28;81937;-84
2021/07/08 05:54:27;;;;;;;5.90;5.30;;;;;;;;;;4915803;28;81804;-81
2021/07/08 05:56:52;;;;;;;6.15;4.32;;;17.40;99.90;;;;;;4913512;28;82182;-83
2021/07/08 05:59:18;;;;;;;6.25;4.43;;;17.40;99.90;;;;;;4916241;28;84110;-83
2021/07/08 06:01:44;;;;;;;6.43;5.13;;;17.40;99.90;;;;;;4917199;28;84025;-83
2021/07/08 06:04:09;;;;;;;5.25;4.35;;;17.50;99.90;;;;;;4914076;28;82077;-82
2021/07/08 06:06:35;;;;;;;6.40;5.00;;;17.50;99.90;;;;;;4912874;28;81972;-83
2021/07/08 06:09:01;;;;;;;6.80;4.70;;;17.60;99.90;;;;;;4919897;28;82193;-83
2021/07/08 06:11:26;;;;;;;6.55;5.07;;;17.60;99.90;;;;;;4910713;28;82272;-84
2021/07/08 06:13:52;;;;;;;5.97;4.75;;;17.60;99.90;;;;;;4907462;28;81955;-83
2021/07/08 06:16:18;;;;;;;6.22;4.85;;;17.60;99.90;;;;;;4916866;28;81600;-83
2021/07/08 06:18:43;;;;;;;5.15;4.60;;;17.60;99.90;;;;;;4915707;28;82934;-84
2021/07/08 06:21:13;;;;;;;7.38;5.80;;;17.60;99.90;;;;;;4915237;28;82579;-82
2021/07/08 06:23:39;;;;;;;6.77;4.90;;;17.60;99.90;;;;;;4914636;28;82996;-83
2021/07/08 06:26:05;;;;;;;5.93;4.55;;;17.60;99.90;;;;;;4911195;28;81846;-83
2021/07/08 06:28:31;;;;;;;6.68;4.95;;;17.60;99.90;;;;;;4913332;28;83196;-83
2021/07/08 06:30:56;;;;;;;5.70;4.63;;;17.60;99.90;;;;;;4915511;28;82617;-83
2021/07/08 06:33:22;;;;;;;4.57;3.85;;;17.60;99.90;;;;;;4905962;28;82293;-82
2021/07/08 06:35:48;;;;;;;6.97;5.10;;;17.70;99.90;;;;;;4923551;28;81871;-83
2021/07/08 06:38:14;;;;;;;5.75;4.68;;;17.60;99.90;;;;;;4913077;28;81799;-83
2021/07/08 06:40:40;;;;;;;5.38;4.40;;;17.50;99.90;;;;;;4911099;28;81460;-83
2021/07/08 06:43:06;;;;;;;5.55;4.82;;;17.50;99.90;;;;;;4907632;28;81607;-84
2021/07/08 06:45:35;;;;;;;6.40;5.10;;;17.60;99.90;;;;;;4912174;28;82359;-83
2021/07/08 06:48:04;;;;;;;7.75;4.95;;;17.60;99.90;;;;;;4911369;28;83195;-82
2021/07/08 06:50:31;;;;;;;6.20;5.05;;;17.50;99.90;;;;;;4912336;28;82745;-82
2021/07/08 06:52:59;;;;;;;11.10;5.18;;;17.50;99.90;;;;;;4911364;28;82006;-81
2021/07/08 06:55:25;;;;;;;6.32;4.63;;;17.50;99.90;;;;;;4909185;28;82093;-82
2021/07/08 06:57:50;;;;;;;7.05;4.90;;;17.60;99.90;;;;;;4908107;28;82081;-82
2021/07/08 07:00:25;;;;;;;7.57;5.13;;;17.60;99.90;;;;;;4910952;28;82734;-82
2021/07/08 07:02:52;;;;;;;7.60;5.53;;;17.60;99.90;;;;;;4910141;28;81939;-81
2021/07/08 07:05:18;;;;;;;10.00;5.63;;;17.50;99.90;;;;;;4913623;28;81390;-83
2021/07/08 07:07:45;;;;;;;5.97;5.03;;;17.60;99.90;;;;;;4911468;28;82551;-81
2021/07/08 07:10:11;;;;;;;7.60;5.70;;;17.60;99.90;;;;;;4910129;28;82032;-83
2021/07/08 07:12:45;;;;;;;6.35;5.35;;;17.60;99.90;;;;;;4913552;28;82872;-82
2021/07/08 07:15:14;;;;;;;7.95;4.78;;;17.60;99.90;;;;;;4910462;28;82184;-83
2021/07/08 07:17:40;;;;;;;6.60;4.88;;;17.50;99.90;;;;;;4911394;28;81920;-82
2021/07/08 07:20:07;;;;;;;7.00;4.60;;;17.60;99.90;;;;;;4908969;28;82338;-82
2021/07/08 07:22:33;;;;;;;6.25;4.65;;;17.70;99.90;;;;;;4908191;28;81664;-84
2021/07/08 07:24:59;;;;;;;6.88;4.90;;;17.70;99.90;;;;;;4908446;28;82001;-83
2021/07/08 07:27:25;;;;;;;7.10;5.05;;;17.60;99.90;;;;;;4916117;28;82607;-84
2021/07/08 07:29:51;;;;;;;7.63;5.50;;;17.40;99.90;;;;;;4908851;28;81712;-82
2021/07/08 07:32:17;;;;;;;7.78;4.95;;;17.50;99.90;;;;;;4910890;28;81993;-81
2021/07/08 07:34:42;;;;;;;5.82;4.80;;;17.60;99.90;;;;;;4909686;28;81969;-82
2021/07/08 07:37:08;;;;;;;6.80;5.07;;;17.70;99.90;;;;;;4909226;28;83498;-82
2021/07/08 07:39:34;;;;;;;7.57;5.70;;;17.70;99.90;;;;;;4910491;28;82956;-82
2021/07/08 07:41:59;;;;;;;7.65;5.32;;;17.80;99.90;;;;;;4911793;28;81635;-83
2021/07/08 07:44:25;;;;;;;5.75;4.25;;;17.80;99.90;;;;;;4911833;28;81964;-81
2021/07/08 07:46:51;;;;;;;6.63;4.55;;;17.70;99.90;;;;;;4910606;28;83050;-82
2021/07/08 07:49:18;;;;;;;4.53;4.10;;;17.70;99.90;;;;;;4910859;28;82010;-81
2021/07/08 07:51:43;;;;;;;3.88;3.33;;;17.70;99.90;;;;;;4907840;28;81955;-81
2021/07/08 07:54:09;;;;;;;3.53;3.22;;;17.80;99.90;;;;;;4912002;28;82076;-81
2021/07/08 07:56:35;;;;;;;3.97;3.50;;;17.90;99.90;;;;;;4917082;28;82137;-82
2021/07/08 07:59:00;;;;;;;4.28;3.40;;;17.90;99.90;;;;;;4908780;28;81787;-82
2021/07/08 08:01:26;;;;;;;3.47;2.65;;;18.00;99.90;;;;;;4910755;28;82736;-81
2021/07/08 08:03:54;;;;;;;4.53;4.13;;;;;;;;;;4911329;28;81744;-83
2021/07/08 08:09:04;;;;;;;3.70;3.13;;;17.70;99.90;;;;;;4911776;28;81968;-82
2021/07/08 08:11:29;;;;;;;3.67;2.95;;;17.70;99.90;;;;;;4916903;28;82184;-82
2021/07/08 08:13:55;;;;;;;6.03;3.90;;;17.70;99.90;;;;;;4912451;28;81660;-82
2021/07/08 08:16:21;;;;;;;5.47;3.63;;;17.60;99.90;;;;;;4917110;28;81702;-80
2021/07/08 08:18:47;;;;;;;5.20;3.92;;;17.50;99.90;;;;;;4925253;28;81177;-80
2021/07/08 08:21:13;;;;;;;6.30;3.88;;;17.50;99.90;;;;;;4925138;28;81226;-79
2021/07/08 08:23:39;;;;;;;5.05;3.78;;;17.50;99.90;;;;;;4921203;28;81650;-80
2021/07/08 08:26:05;;;;;;;5.68;4.43;;;17.50;99.90;;;;;;4920245;28;82890;-79
2021/07/08 08:28:31;;;;;;;5.03;3.88;;;17.50;99.90;;;;;;4923314;28;82437;-80
2021/07/08 08:30:57;;;;;;;6.07;4.10;;;17.60;99.90;;;;;;4923843;28;81775;-80
2021/07/08 08:33:24;;;;;;;4.63;4.10;;;17.60;99.90;;;;;;4916970;28;83060;-83
2021/07/08 08:35:50;;;;;;;6.90;4.40;;;17.60;99.90;;;;;;4916883;28;81851;-83
2021/07/08 08:38:16;;;;;;;6.50;4.43;;;17.60;99.90;;;;;;4918534;28;81314;-82
2021/07/08 08:40:41;;;;;;;6.40;3.65;;;17.60;99.90;;;;;;4919104;28;81835;-81
2021/07/08 08:43:07;;;;;;;3.28;2.80;;;17.70;99.90;;;;;;4917481;28;82897;-82
2021/07/08 08:45:33;;;;;;;3.20;2.55;;;17.70;99.90;;;;;;4917828;28;81760;-82
2021/07/08 08:48:04;;;;;;;2.90;2.60;;;17.70;99.90;;;;;;4918354;28;81683;-82
2021/07/08 08:50:32;;;;;;;;;;;17.80;99.90;;;;;;4916984;28;82742;-81
2021/07/08 08:52:58;;;;;;;4.07;3.70;;;17.70;99.90;;;;;;4916326;28;82193;-82
2021/07/08 08:55:24;;;;;;;3.25;2.20;;;17.90;99.90;;;;;;4915009;28;82180;-82
2021/07/08 08:57:50;;;;;;;2.40;2.20;;;18.00;99.90;;;;;;4913465;28;83016;-81
2021/07/08 09:00:24;;;;;;;2.47;2.28;;;18.10;99.90;;;;;;4912299;28;81794;-82
2021/07/08 09:03:12;;;;;;;2.63;2.20;;;18.30;99.90;;;;;;4912914;28;81869;-81
2021/07/08 09:05:39;;;;;;;3.78;2.15;;;18.20;99.90;;;;;;4912987;28;81881;-82
2021/07/08 09:08:21;;;;;;;4.25;3.95;;;18.50;99.90;;;;;;4918765;28;82711;-82
2021/07/08 09:11:03;;;;;;;3.65;2.55;;;18.10;99.90;;;;;;4918344;28;82007;-82
2021/07/08 09:13:46;;;;;;;6.65;2.63;;;18.00;99.90;;;;;;4902859;28;81775;-82
2021/07/08 09:16:27;;;;;;;3.47;2.60;;;18.00;99.90;;;;;;4910803;28;83440;-82
2021/07/08 09:18:57;;;;;;;;;;;18.10;99.90;;;;;;4916574;28;83312;-83
2021/07/08 09:21:23;;;;;;;3.10;2.60;;;18.10;99.90;;;;;;4920612;28;81634;-83
2021/07/08 09:24:14;;;;;;;4.75;3.08;;;18.10;99.90;;;;;;4920731;28;81706;-82
2021/07/08 09:27:03;;;;;;;3.60;2.50;;;18.10;99.90;;;;;;4923076;28;82365;-82
2021/07/08 09:29:32;;;;;;;3.38;2.67;;;18.10;99.90;;;;;;4909289;28;82007;-82
2021/07/08 09:32:01;;;;;;;3.10;2.83;;;18.10;99.90;;;;;;4922297;28;81580;-83
2021/07/08 09:34:32;;;;;;;5.13;2.80;;;18.10;99.90;;;;;;4923907;28;81267;-83
2021/07/08 09:37:08;;;;;;;2.90;2.65;;;18.00;99.90;;;;;;4924064;28;81943;-83
2021/07/08 09:39:40;;;;;;;4.75;2.90;;;17.90;99.90;;;;;;4922538;28;81604;-82
2021/07/08 09:42:08;;;;;;;6.75;3.05;;;17.90;99.90;;;;;;4921704;28;81870;-82
2021/07/08 09:44:34;;;;;;;3.38;1.77;;;17.90;99.90;;;;;;4920956;28;82107;-82
2021/07/08 09:47:00;;;;;;;4.18;3.17;;;17.70;99.90;;;;;;4919644;28;83026;-82
2021/07/08 09:49:27;;;;;;;4.75;2.25;;;17.70;99.90;;;;;;4918332;28;82250;-81
2021/07/08 09:51:54;;;;;;;6.30;2.80;;;17.30;99.90;;;;;;4914209;28;81633;-81
2021/07/08 09:55:15;;;;;;;5.55;3.17;;;17.20;99.90;;;;;;4915263;28;82699;-82
2021/07/08 09:57:40;;;;;;;3.22;3.00;;;17.20;99.90;;;;;;4917275;28;83559;-82
2021/07/08 10:00:18;;;;;;;3.17;1.88;;;17.70;99.90;;;;;;4916881;28;82856;-83
2021/07/08 10:02:45;;;;;;;3.03;2.30;;;17.20;99.90;;;;;;4916076;28;81874;-82
2021/07/08 10:05:11;;;;;;;3.63;3.33;;;17.60;99.90;;;;;;4888669;28;85311;-82
2021/07/08 10:07:38;;;;;;;2.72;2.25;;;17.90;99.90;;;;;;4916712;28;84067;-82
2021/07/08 10:10:05;;;;;;;2.58;2.00;;;17.80;99.90;;;;;;4919318;28;82193;-82
2021/07/08 10:12:32;;;;;;;2.53;2.08;;;17.70;99.90;;;;;;4918497;28;81516;-81
2021/07/08 10:15:01;;;;;;;2.47;2.13;;;17.60;99.90;;;;;;4917461;28;81793;-82
2021/07/08 10:17:31;;;;;;;3.78;2.70;;;17.60;99.90;;;;;;4913549;28;82289;-82
2021/07/08 10:19:57;;;;;;;1.93;1.83;;;17.70;99.90;;;;;;4915389;28;82009;-82
2021/07/08 10:22:23;;;;;;;2.95;2.10;;;17.70;99.90;;;;;;4916801;28;82400;-82
2021/07/08 10:24:49;;;;;;;2.75;1.80;;;17.70;99.90;;;;;;4919365;28;81914;-82
2021/07/08 10:27:17;;;;;;;2.42;1.73;;;17.70;99.90;;;;;;4916561;28;81640;-82
2021/07/08 10:29:44;;;;;;;3.50;2.55;;;17.50;99.90;;;;;;4914958;28;82117;-81
2021/07/08 10:32:13;;;;;;;3.15;1.92;;;17.40;99.90;;;;;;4918375;28;82952;-82
2021/07/08 10:34:50;;;;;;;2.55;2.08;;;17.30;99.90;;;;;;4916206;28;82182;-81
2021/07/08 10:37:25;;;;;;;2.80;1.75;;;17.30;99.90;;;;;;4917594;28;82293;-83
2021/07/08 10:39:52;;;;;;;3.38;3.08;;;16.90;99.90;;;;;;4917326;28;81729;-81
2021/07/08 10:42:44;;;;;;;2.65;2.30;;;17.30;99.90;;;;;;4916477;28;81882;-81
2021/07/08 10:45:22;;;;;;;2.75;2.40;;;17.30;99.90;;;;;;4904746;28;82388;-81
2021/07/08 10:47:49;;;;;;;3.33;3.00;;;17.20;99.90;;;;;;4916626;28;82531;-82
2021/07/08 10:50:38;;;;;;;3.40;2.60;;;17.30;99.90;;;;;;4917999;28;81969;-80
2021/07/08 10:53:19;;;;;;;4.97;3.30;;;17.30;99.90;;;;;;4915174;28;82037;-81
2021/07/08 10:55:47;;;;;;;4.80;3.70;;;17.30;99.90;;;;;;4915912;28;83150;-80
2021/07/08 10:58:37;;;;;;;5.03;3.30;;;17.30;99.90;;;;;;4903638;28;82573;-81
2021/07/08 11:01:04;;;;;;;3.10;2.80;;;17.30;99.90;;;;;;4914152;28;82055;-81
2021/07/08 11:03:43;;;;;;;2.55;2.35;;;17.30;99.90;;;;;;4917025;28;81636;-81
2021/07/08 11:09:30;;;;;;;2.75;2.55;;;17.30;99.90;;;;;;4895759;28;81778;-80
2021/07/08 11:11:59;;;;;;;3.58;2.70;;;17.30;99.90;;;;;;4914428;28;82092;-81
2021/07/08 11:14:26;;;;;;;3.97;2.90;;;17.40;99.90;;;;;;4915479;28;81967;-82
2021/07/08 11:17:14;;;;;;;3.60;2.75;;;17.50;99.90;;;;;;4915196;28;82159;-81
2021/07/08 11:19:45;;;;;;;2.70;2.50;;;17.70;99.90;;;;;;4916609;28;82171;-82
2021/07/08 11:22:21;;;;;;;3.22;2.67;;;17.70;99.90;;;;;;4917597;28;81558;-81
2021/07/08 11:24:52;;;;;;;3.33;2.88;;;17.50;99.90;;;;;;4920612;28;82289;-81
2021/07/08 11:28:10;;;;;;;3.55;3.08;;;17.30;99.90;;;;;;4918914;28;81975;-82
2021/07/08 11:30:36;;;;;;;3.35;3.05;;;17.40;99.90;;;;;;4917361;28;82518;-82
2021/07/08 11:33:03;;;;;;;4.22;3.72;;;17.30;99.90;;;;;;4914138;28;82232;-82
2021/07/08 11:35:34;;;;;;;3.67;2.45;;;17.30;99.90;;;;;;4914287;28;81834;-83
2021/07/08 11:38:03;;;;;;;;;;;17.20;99.90;;;;;;4915182;28;81953;-82
2021/07/08 11:40:35;;;;;;;2.38;2.00;;;17.10;99.90;;;;;;4914847;28;83534;-81
2021/07/08 11:43:31;;;;;;;2.25;1.80;;;17.10;99.90;;;;;;4912454;28;81553;-81
2021/07/08 11:46:05;;;;;;;1.63;1.52;;;17.10;99.90;;;;;;4915087;28;82164;-81
2021/07/08 11:48:42;;;;;;;1.60;1.50;;;17.20;99.90;;;;;;4915781;28;81199;-81
2021/07/08 11:51:32;;;;;;;1.85;1.60;;;17.30;99.90;;;;;;4913182;28;82641;-82
2021/07/08 11:53:58;;;;;;;1.88;1.60;;;17.30;99.90;;;;;;4915088;28;82055;-82
2021/07/08 11:56:24;;;;;;;1.75;1.65;;;17.40;99.90;;;;;;4915784;28;81794;-81
2021/07/08 11:58:51;;;;;;;1.85;1.40;;;17.40;99.90;;;;;;4914909;28;81588;-82
2021/07/08 12:01:21;;;;;;;1.52;1.42;;;17.50;99.90;;;;;;4917223;28;82436;-80
2021/07/08 12:03:54;;;;;;;3.25;3.05;;;17.70;99.90;;;;;;4915414;28;82359;-82
2021/07/08 12:06:24;;;;;;;1.65;1.33;;;17.60;99.90;;;;;;4915630;28;81760;-81
2021/07/08 12:08:51;;;;;;;1.30;1.20;;;17.80;99.90;;;;;;4906355;28;82694;-81
2021/07/08 12:11:31;;;;;;;1.58;1.48;;;18.00;99.90;;;;;;4912818;28;81998;-82
2021/07/08 12:14:00;;;;;;;1.15;1.08;;;18.30;99.90;;;;;;4918537;28;81800;-82
2021/07/08 12:16:31;;;;;;;1.45;1.30;;;18.40;99.90;;;;;;4917017;28;82497;-81
2021/07/08 12:19:01;;;;;;;1.83;1.20;;;18.50;99.90;;;;;;4917357;28;81896;-81
2021/07/08 12:21:32;;;;;;;1.40;1.30;;;18.50;99.90;;;;;;4916565;28;81677;-81
2021/07/08 12:24:10;;;;;;;1.50;1.40;;;18.60;99.90;;;;;;4876721;28;81741;-79
2021/07/08 12:26:46;;;;;;;1.33;1.23;;;18.70;99.90;;;;;;4892947;28;81587;-81
2021/07/08 12:29:29;;;;;;;1.20;1.10;;;18.80;99.90;;;;;;4889952;28;82064;-81
2021/07/08 12:31:57;;;;;;;1.38;1.10;;;18.90;99.90;;;;;;4893794;28;84934;-81
2021/07/08 12:34:45;;;;;;;1.88;1.20;;;19.20;99.90;;;;;;4918509;28;82788;-83
2021/07/08 12:37:30;;;;;;;1.60;1.48;;;19.70;99.90;;;;;;4901235;28;81803;-82
2021/07/08 12:40:05;;;;;;;3.75;2.08;;;20.00;99.90;;;;;;4912495;28;81273;-81
2021/07/08 12:42:38;;;;;;;4.40;2.35;;;20.10;99.90;;;;;;4913486;28;84599;-81
2021/07/08 12:45:11;;;;;;;3.40;1.90;;;20.20;99.90;;;;;;4918682;28;83173;-82
2021/07/08 12:47:42;;;;;;;2.20;1.73;;;20.40;99.90;;;;;;4918947;28;81731;-82
2021/07/08 12:50:09;;;;;;;1.60;1.50;;;20.40;99.90;;;;;;4906368;28;81764;-82
2021/07/08 12:52:38;;;;;;;1.92;1.30;;;20.40;99.90;;;;;;4918249;28;83021;-82
2021/07/08 12:55:06;;;;;;;1.25;1.20;;;20.40;99.90;;;;;;4919617;28;82207;-82
2021/07/08 12:57:32;;;;;;;1.30;1.20;;;20.40;99.90;;;;;;4917580;28;81800;-82
2021/07/08 13:00:05;;;;;;;2.55;1.20;;;20.40;99.90;;;;;;4913196;28;81577;-82
2021/07/08 13:02:36;;;;;;;1.95;1.75;;;20.30;99.90;;;;;;4919462;28;83750;-82
2021/07/08 13:05:12;;;;;;;1.10;1.10;;;20.40;99.90;;;;;;4920882;28;82012;-81
2021/07/08 13:07:48;;;;;;;1.42;1.33;;;20.30;99.90;;;;;;4910643;28;82608;-81
2021/07/08 13:10:14;;;;;;;1.50;1.40;;;20.30;99.90;;;;;;4903947;28;81658;-82
2021/07/08 13:12:40;;;;;;;1.80;1.20;;;20.30;99.90;;;;;;4914014;28;82296;-82
2021/07/08 13:15:23;;;;;;;1.40;1.30;;;20.20;99.90;;;;;;4920675;28;81866;-81
2021/07/08 13:18:09;;;;;;;1.33;1.23;;;20.20;99.90;;;;;;4903738;28;81604;-82
2021/07/08 13:20:38;;;;;;;2.55;1.40;;;20.20;99.90;;;;;;4919957;28;81818;-82
2021/07/08 13:23:35;;;;;;;1.52;1.42;;;20.30;99.90;;;;;;4916982;28;81791;-82
2021/07/08 13:29:25;;;;;;;3.90;2.05;;;20.90;99.90;;;;;;4897733;28;81298;-82
2021/07/08 13:31:51;;;;;;;1.67;1.58;;;21.20;99.90;;;;;;4900855;28;81585;-83
2021/07/08 13:34:24;;;;;;;1.48;1.38;;;21.50;99.90;;;;;;4900891;28;82947;-81
2021/07/08 13:36:51;;;;;;;1.75;1.65;;;21.70;99.90;;;;;;4901445;28;82138;-82
2021/07/08 13:39:17;;;;;;;1.70;1.45;;;21.80;99.90;;;;;;4903481;28;81608;-82
2021/07/08 13:42:33;;;;;;;2.30;1.40;;;21.90;99.90;;;;;;4902589;28;81651;-82
2021/07/08 13:48:21;;;;;;;1.50;1.40;;;22.00;99.90;;;;;;4912557;28;81853;-80
2021/07/08 13:50:47;;;;;;;1.88;1.35;;;21.90;99.90;;;;;;4918005;28;81681;-82
2021/07/08 13:53:13;;;;;;;2.00;1.45;;;21.90;99.90;;;;;;4905742;28;82136;-82
2021/07/08 13:55:39;;;;;;;1.67;1.58;;;21.90;99.90;;;;;;4915423;28;82854;-81
2021/07/08 13:58:05;;;;;;;2.30;1.55;;;21.90;99.90;;;;;;4922771;28;81915;-81
2021/07/08 14:00:31;;;;;;;2.40;1.70;;;22.00;99.90;;;;;;4929799;28;81954;-80
2021/07/08 14:02:56;;;;;;;2.20;1.50;;;22.10;99.90;;;;;;4906280;28;83041;-82
2021/07/08 14:05:28;;;;;;;3.10;1.63;;;22.00;99.90;;;;;;4902773;28;82216;-82
2021/07/08 14:08:35;;;;;;;2.88;1.65;;;21.90;99.90;;;;;;4921614;28;82401;-82
2021/07/08 14:11:01;;;;;;;1.80;1.70;;;21.80;99.90;;;;;;4917315;28;81869;-82
2021/07/08 14:13:27;;;;;;;1.60;1.50;;;21.60;99.90;;;;;;4921160;28;81635;-83
2021/07/08 14:15:53;;;;;;;1.90;1.75;;;21.40;99.90;;;;;;4922616;28;82203;-83
2021/07/08 14:18:19;;;;;;;1.58;1.48;;;21.20;99.90;;;;;;4922635;28;82279;-82
2021/07/08 14:20:44;;;;;;;1.90;1.80;;;20.90;99.90;;;;;;4921478;28;82018;-83
2021/07/08 14:23:10;;;;;;;4.05;2.88;;;;;;;;;;4920464;28;82029;-83
2021/07/08 14:25:36;;;;;;;2.58;1.80;;;20.70;99.90;;;;;;4920201;28;82881;-83
2021/07/08 14:28:06;;;;;;;1.80;1.70;;;20.70;99.90;;;;;;4920620;28;82861;-83
2021/07/08 14:30:33;;;;;;;2.58;1.52;;;20.70;99.90;;;;;;4919985;28;81743;-83
2021/07/08 14:33:01;;;;;;;1.80;1.63;;;20.60;99.90;;;;;;4917420;28;82206;-83
2021/07/08 14:35:28;;;;;;;1.85;1.70;;;20.50;99.90;;;;;;4918230;28;81603;-83
2021/07/08 14:37:53;;;;;;;3.08;1.73;;;20.30;99.90;;;;;;4917137;28;81899;-82
2021/07/08 14:40:19;;;;;;;2.35;1.65;;;20.00;99.90;;;;;;4917237;28;81466;-82
2021/07/08 14:42:45;;;;;;;2.17;1.80;;;19.80;99.90;;;;;;4916681;28;81598;-83
2021/07/08 14:45:13;;;;;;;1.75;1.42;;;19.70;99.90;;;;;;4914180;28;81950;-82
2021/07/08 14:47:40;;;;;;;3.10;1.58;;;19.60;99.90;;;;;;4912588;28;82311;-83
2021/07/08 14:50:07;;;;;;;2.83;2.63;;;19.50;99.90;;;;;;4914309;28;82785;-83
2021/07/08 14:52:36;;;;;;;4.22;1.40;;;19.40;99.90;;;;;;4915867;28;82129;-82
2021/07/08 14:55:07;;;;;;;1.65;1.50;;;19.40;99.90;;;;;;4916674;28;82191;-82
2021/07/08 14:57:33;;;;;;;2.08;1.55;;;19.60;99.90;;;;;;4916637;28;84781;-82
2021/07/08 14:59:59;;;;;;;1.98;1.80;;;19.60;99.90;;;;;;4917521;28;81880;-81
2021/07/08 15:02:25;;;;;;;3.83;1.40;;;19.60;99.90;;;;;;4908776;28;81969;-83
2021/07/08 15:04:50;;;;;;;2.40;1.52;;;19.50;99.90;;;;;;4903188;28;87530;-83
2021/07/08 15:10:38;;;;;;;2.50;2.40;;;19.50;99.90;;;;;;4894633;28;86719;-81
2021/07/08 15:13:04;;;;;;;2.33;1.80;;;19.30;99.90;;;;;;4911060;28;86706;-83
2021/07/08 15:15:36;;;;;;;1.70;1.60;;;19.30;99.90;;;;;;4915714;28;88184;-81
2021/07/08 15:18:02;;;;;;;1.42;1.33;;;19.20;99.90;;;;;;4902131;28;88117;-82
2021/07/08 15:20:27;;;;;;;1.63;1.52;;;19.00;99.90;;;;;;4915565;28;86905;-82
2021/07/08 15:22:54;;;;;;;2.20;1.50;;;18.90;99.90;;;;;;4918032;28;87198;-82
2021/07/08 15:25:21;;;;;;;2.30;1.60;;;18.90;99.90;;;;;;4914694;28;87715;-83
2021/07/08 15:27:47;;;;;;;1.55;1.45;;;18.80;99.90;;;;;;4913965;28;86936;-82
2021/07/08 15:30:13;;;;;;;4.47;1.55;;;18.70;99.90;;;;;;4912529;28;86759;-83
2021/07/08 15:32:43;;;;;;;2.10;1.33;;;18.60;99.90;;;;;;4914110;28;85696;-83
2021/07/08 15:35:11;;;;;;;1.90;1.48;;;18.60;99.90;;;;;;4896815;28;86996;-83
2021/07/08 15:37:38;;;;;;;3.17;1.88;;;18.40;99.90;;;;;;4912930;28;86764;-83
2021/07/08 15:40:05;;;;;;;1.75;1.65;;;18.30;99.90;;;;;;4904869;28;87970;-83
2021/07/08 15:42:31;;;;;;;3.47;3.17;;;18.20;99.90;;;;;;4913621;28;86675;-81
2021/07/08 15:44:57;;;;;;;2.15;1.95;;;18.30;99.90;;;;;;4913414;28;86753;-83
2021/07/08 15:47:23;;;;;;;3.10;2.90;;;18.00;99.90;;;;;;4909388;28;87144;-83
2021/07/08 15:49:52;;;;;;;1.80;1.40;;;18.10;99.90;;;;;;4913434;28;86809;-83
2021/07/08 15:52:18;;;;;;;2.03;1.40;;;18.10;99.90;;;;;;4912403;28;87001;-82
2021/07/08 15:54:44;;;;;;;2.17;1.35;;;17.90;99.90;;;;;;4912649;28;86829;-83
2021/07/08 15:57:10;;;;;;;1.58;1.48;;;17.80;99.90;;;;;;4915223;28;86312;-81
2021/07/08 15:59:36;;;;;;;2.90;1.80;;;17.70;99.90;;;;;;4914458;28;86441;-82